createdAt,value
2018-03-22T00:00:20.642Z,1016.22
2018-03-22T00:01:20.658Z,1016.23
2018-03-22T00:02:20.672Z,1016.23
2018-03-22T00:03:20.689Z,1016.17
2018-03-22T00:04:20.706Z,1016.18
2018-03-22T00:05:20.721Z,1016.17
2018-03-22T00:06:20.736Z,1016.22
2018-03-22T00:07:20.751Z,1016.17
2018-03-22T00:08:20.768Z,1016.19
2018-03-22T00:09:20.784Z,1016.20
2018-03-22T00:10:20.798Z,1016.21
2018-03-22T00:11:20.814Z,1016.19
2018-03-22T00:12:20.829Z,1016.16
2018-03-22T00:13:20.850Z,1016.20
2018-03-22T00:14:20.911Z,1016.19
2018-03-22T00:15:20.876Z,1016.18
2018-03-22T00:16:20.891Z,1016.13
2018-03-22T00:17:20.908Z,1016.17
2018-03-22T00:18:20.922Z,1016.09
2018-03-22T00:19:20.938Z,1016.06
2018-03-22T00:20:20.954Z,1016.02
2018-03-22T00:21:20.970Z,1016.03
2018-03-22T00:22:20.985Z,1016.05
2018-03-22T00:23:21.001Z,1016.07
2018-03-22T00:24:21.017Z,1016.04
2018-03-22T00:25:21.032Z,1015.94
2018-03-22T00:26:21.047Z,1015.96
2018-03-22T00:27:21.063Z,1015.95
2018-03-22T00:28:21.080Z,1015.93
2018-03-22T00:29:21.094Z,1015.92
2018-03-22T00:30:21.111Z,1015.91
2018-03-22T00:31:21.126Z,1015.91
2018-03-22T00:32:21.141Z,1015.90
2018-03-22T00:33:21.167Z,1015.91
2018-03-22T00:34:21.172Z,1015.81
2018-03-22T00:35:21.188Z,1015.77
2018-03-22T00:36:21.206Z,1015.75
2018-03-22T00:37:21.219Z,1015.68
2018-03-22T00:38:21.234Z,1015.67
2018-03-22T00:39:21.249Z,1015.67
2018-03-22T00:40:21.265Z,1015.62
2018-03-22T00:41:21.281Z,1015.61
2018-03-22T00:42:21.299Z,1015.60
2018-03-22T00:43:21.311Z,1015.57
2018-03-22T00:44:21.328Z,1015.52
2018-03-22T00:45:21.343Z,1015.54
2018-03-22T00:46:21.358Z,1015.51
2018-03-22T00:47:21.379Z,1015.50
2018-03-22T00:48:21.392Z,1015.47
2018-03-22T00:49:21.405Z,1015.44
2018-03-22T00:50:21.423Z,1015.47
2018-03-22T00:51:21.436Z,1015.44
2018-03-22T00:52:21.452Z,1015.43
2018-03-22T00:53:21.470Z,1015.42
2018-03-22T00:54:21.481Z,1015.37
2018-03-22T00:55:21.497Z,1015.34
2018-03-22T00:56:21.513Z,1015.36
2018-03-22T00:57:21.529Z,1015.33
2018-03-22T00:58:21.544Z,1015.29
2018-03-22T00:59:21.559Z,1015.27
2018-03-22T01:00:21.575Z,1015.25
2018-03-22T01:01:21.592Z,1015.18
2018-03-22T01:02:21.606Z,1015.23
2018-03-22T01:03:21.622Z,1015.18
2018-03-22T01:04:21.638Z,1015.19
2018-03-22T01:05:21.653Z,1015.18
2018-03-22T01:06:21.669Z,1015.12
2018-03-22T01:07:21.684Z,1015.07
2018-03-22T01:08:21.701Z,1015.07
2018-03-22T01:09:21.723Z,1015.04
2018-03-22T01:10:21.730Z,1015.02
2018-03-22T01:11:21.747Z,1015.03
2018-03-22T01:12:21.763Z,1014.99
2018-03-22T01:13:21.780Z,1015.02
2018-03-22T01:14:21.794Z,1014.95
2018-03-22T01:15:21.809Z,1014.94
2018-03-22T01:16:21.824Z,1014.89
2018-03-22T01:17:21.839Z,1014.85
2018-03-22T01:18:21.855Z,1014.78
2018-03-22T01:19:21.870Z,1014.74
2018-03-22T01:20:21.886Z,1014.70
2018-03-22T01:21:21.910Z,1014.69
2018-03-22T01:22:21.920Z,1014.63
2018-03-22T01:23:21.935Z,1014.62
2018-03-22T01:24:21.949Z,1014.59
2018-03-22T01:25:21.964Z,1014.53
2018-03-22T01:26:21.978Z,1014.58
2018-03-22T01:27:21.994Z,1014.54
2018-03-22T01:28:22.010Z,1014.45
2018-03-22T01:29:22.026Z,1014.51
2018-03-22T01:30:22.041Z,1014.42
2018-03-22T01:31:22.057Z,1014.42
2018-03-22T01:32:22.072Z,1014.39
2018-03-22T01:33:22.089Z,1014.32
2018-03-22T01:34:22.103Z,1014.31
2018-03-22T01:35:22.118Z,1014.28
2018-03-22T01:36:22.134Z,1014.24
2018-03-22T01:37:22.150Z,1014.22
2018-03-22T01:38:22.164Z,1014.18
2018-03-22T01:39:22.189Z,1014.19
2018-03-22T01:40:22.196Z,1014.19
2018-03-22T01:41:22.212Z,1014.17
2018-03-22T01:42:22.227Z,1014.15
2018-03-22T01:43:22.242Z,1014.14
2018-03-22T01:44:22.258Z,1014.07
2018-03-22T01:45:22.274Z,1014.04
2018-03-22T01:46:22.389Z,1014.01
2018-03-22T01:47:22.306Z,1013.97
2018-03-22T01:48:22.321Z,1013.96
2018-03-22T01:49:22.337Z,1013.97
2018-03-22T01:50:22.351Z,1013.95
2018-03-22T01:51:22.366Z,1013.94
2018-03-22T01:52:22.383Z,1013.93
2018-03-22T01:53:22.399Z,1013.90
2018-03-22T01:54:22.414Z,1013.90
2018-03-22T01:55:22.430Z,1013.93
2018-03-22T01:56:22.445Z,1013.91
2018-03-22T01:57:22.461Z,1013.89
2018-03-22T01:58:22.475Z,1013.88
2018-03-22T01:59:22.491Z,1013.84
2018-03-22T02:00:22.507Z,1013.77
2018-03-22T02:01:22.528Z,1013.74
2018-03-22T02:02:22.537Z,1013.71
2018-03-22T02:03:22.553Z,1013.69
2018-03-22T02:04:22.570Z,1013.69
2018-03-22T02:05:22.585Z,1013.70
2018-03-22T02:06:22.600Z,1013.74
2018-03-22T02:07:22.616Z,1013.80
2018-03-22T02:08:22.634Z,1013.81
2018-03-22T02:09:22.647Z,1013.85
2018-03-22T02:10:22.666Z,1013.85
2018-03-22T02:11:22.677Z,1013.84
2018-03-22T02:12:22.695Z,1013.79
2018-03-22T02:13:22.709Z,1013.77
2018-03-22T02:14:22.724Z,1013.73
2018-03-22T02:15:22.738Z,1013.69
2018-03-22T02:16:22.756Z,1013.65
2018-03-22T02:17:22.772Z,1013.57
2018-03-22T02:18:22.785Z,1013.56
2018-03-22T02:19:22.803Z,1013.56
2018-03-22T02:20:22.818Z,1013.57
2018-03-22T02:21:22.834Z,1013.55
2018-03-22T02:22:22.849Z,1013.55
2018-03-22T02:23:22.873Z,1013.58
2018-03-22T02:24:22.880Z,1013.51
2018-03-22T02:25:22.896Z,1013.52
2018-03-22T02:26:22.916Z,1013.50
2018-03-22T02:27:22.928Z,1013.47
2018-03-22T02:28:22.942Z,1013.49
2018-03-22T02:29:22.958Z,1013.47
2018-03-22T02:30:22.973Z,1013.52
2018-03-22T02:31:22.990Z,1013.44
2018-03-22T02:32:23.005Z,1013.39
2018-03-22T02:33:23.022Z,1013.35
2018-03-22T02:34:23.040Z,1013.32
2018-03-22T02:35:23.052Z,1013.29
2018-03-22T02:36:23.068Z,1013.26
2018-03-22T02:37:23.083Z,1013.27
2018-03-22T02:38:23.098Z,1013.29
2018-03-22T02:39:23.115Z,1013.25
2018-03-22T02:40:23.129Z,1013.26
2018-03-22T02:41:23.145Z,1013.26
2018-03-22T02:42:23.160Z,1013.19
2018-03-22T02:43:23.180Z,1013.21
2018-03-22T02:44:23.192Z,1013.15
2018-03-22T02:45:23.207Z,1013.05
2018-03-22T02:46:23.223Z,1013.06
2018-03-22T02:47:23.243Z,1013.02
2018-03-22T02:48:23.255Z,1012.94
2018-03-22T02:49:23.269Z,1012.98
2018-03-22T02:50:23.292Z,1012.98
2018-03-22T02:51:23.301Z,1012.97
2018-03-22T02:52:23.316Z,1012.95
2018-03-22T02:53:23.333Z,1012.91
2018-03-22T02:54:23.349Z,1012.91
2018-03-22T02:55:23.362Z,1012.90
2018-03-22T02:56:23.380Z,1012.88
2018-03-22T02:57:23.422Z,1012.82
2018-03-22T02:58:23.417Z,1012.82
2018-03-22T02:59:23.424Z,1012.74
2018-03-22T03:00:23.446Z,1012.71
2018-03-22T03:01:23.458Z,1012.70
2018-03-22T03:02:23.471Z,1012.69
2018-03-22T03:03:23.492Z,1012.68
2018-03-22T03:04:23.518Z,1012.60
2018-03-22T03:05:23.521Z,1012.56
2018-03-22T03:06:23.538Z,1012.56
2018-03-22T03:07:23.551Z,1012.59
2018-03-22T03:08:23.566Z,1012.55
2018-03-22T03:09:23.582Z,1012.52
2018-03-22T03:10:23.596Z,1012.45
2018-03-22T03:11:23.611Z,1012.44
2018-03-22T03:12:23.635Z,1012.37
2018-03-22T03:13:23.643Z,1012.39
2018-03-22T03:14:23.658Z,1012.33
2018-03-22T03:15:23.675Z,1012.33
2018-03-22T03:16:23.694Z,1012.34
2018-03-22T03:17:23.707Z,1012.33
2018-03-22T03:18:23.721Z,1012.31
2018-03-22T03:19:23.737Z,1012.33
2018-03-22T03:20:23.754Z,1012.26
2018-03-22T03:21:23.769Z,1012.25
2018-03-22T03:22:23.784Z,1012.30
2018-03-22T03:23:23.800Z,1012.24
2018-03-22T03:24:23.816Z,1012.18
2018-03-22T03:25:23.831Z,1012.18
2018-03-22T03:26:23.847Z,1012.18
2018-03-22T03:27:23.861Z,1012.16
2018-03-22T03:28:23.877Z,1012.16
2018-03-22T03:29:23.893Z,1012.13
2018-03-22T03:30:23.956Z,1012.13
2018-03-22T03:31:23.925Z,1012.06
2018-03-22T03:32:23.939Z,1012.06
2018-03-22T03:33:23.955Z,1012.08
2018-03-22T03:34:23.971Z,1012.05
2018-03-22T03:35:23.994Z,1012.04
2018-03-22T03:36:24.003Z,1012.04
2018-03-22T03:37:24.017Z,1012.03
2018-03-22T03:38:24.033Z,1012.00
2018-03-22T03:39:24.053Z,1011.98
2018-03-22T03:40:24.068Z,1012.02
2018-03-22T03:41:24.116Z,1012.01
2018-03-22T03:42:24.095Z,1011.94
2018-03-22T03:43:24.111Z,1011.94
2018-03-22T03:44:24.129Z,1011.89
2018-03-22T03:45:24.146Z,1011.90
2018-03-22T03:46:24.157Z,1011.85
2018-03-22T03:47:24.173Z,1011.90
2018-03-22T03:48:24.188Z,1011.89
2018-03-22T03:49:24.206Z,1011.86
2018-03-22T03:50:24.225Z,1011.85
2018-03-22T03:51:24.235Z,1011.93
2018-03-22T03:52:24.250Z,1011.90
2018-03-22T03:53:24.267Z,1011.94
2018-03-22T03:54:24.285Z,1011.89
2018-03-22T03:55:24.296Z,1011.93
2018-03-22T03:56:24.314Z,1011.89
2018-03-22T03:57:24.328Z,1011.82
2018-03-22T03:58:24.342Z,1011.84
2018-03-22T03:59:24.358Z,1011.83
2018-03-22T04:00:24.374Z,1011.80
2018-03-22T04:01:24.389Z,1011.80
2018-03-22T04:02:24.404Z,1011.70
2018-03-22T04:03:24.420Z,1011.72
2018-03-22T04:04:24.435Z,1011.71
2018-03-22T04:05:24.451Z,1011.71
2018-03-22T04:06:24.465Z,1011.74
2018-03-22T04:07:24.481Z,1011.68
2018-03-22T04:08:24.497Z,1011.70
2018-03-22T04:09:24.514Z,1011.60
2018-03-22T04:10:24.528Z,1011.61
2018-03-22T04:11:24.544Z,1011.56
2018-03-22T04:12:24.560Z,1011.56
2018-03-22T04:13:24.574Z,1011.55
2018-03-22T04:14:24.590Z,1011.50
2018-03-22T04:15:24.605Z,1011.48
2018-03-22T04:16:24.621Z,1011.42
2018-03-22T04:17:24.636Z,1011.43
2018-03-22T04:18:24.651Z,1011.39
2018-03-22T04:19:24.666Z,1011.39
2018-03-22T04:20:24.682Z,1011.34
2018-03-22T04:21:24.700Z,1011.31
2018-03-22T04:22:24.712Z,1011.27
2018-03-22T04:23:24.728Z,1011.28
2018-03-22T04:24:24.743Z,1011.25
2018-03-22T04:25:24.762Z,1011.33
2018-03-22T04:26:24.772Z,1011.30
2018-03-22T04:27:24.790Z,1011.23
2018-03-22T04:28:24.804Z,1011.21
2018-03-22T04:29:24.820Z,1011.24
2018-03-22T04:30:24.846Z,1011.24
2018-03-22T04:31:24.854Z,1011.24
2018-03-22T04:32:24.866Z,1011.23
2018-03-22T04:33:24.881Z,1011.26
2018-03-22T04:34:24.897Z,1011.25
2018-03-22T04:35:24.918Z,1011.28
2018-03-22T04:36:24.928Z,1011.27
2018-03-22T04:37:24.943Z,1011.23
2018-03-22T04:38:24.957Z,1011.20
2018-03-22T04:39:24.972Z,1011.20
2018-03-22T04:40:24.988Z,1011.17
2018-03-22T04:41:25.009Z,1011.16
2018-03-22T04:42:25.018Z,1011.15
2018-03-22T04:43:25.034Z,1011.14
2018-03-22T04:44:25.050Z,1011.05
2018-03-22T04:45:25.064Z,1011.08
2018-03-22T04:46:25.080Z,1011.02
2018-03-22T04:47:25.095Z,1011.07
2018-03-22T04:48:25.112Z,1011.04
2018-03-22T04:49:25.172Z,1011.01
2018-03-22T04:50:25.141Z,1010.94
2018-03-22T04:51:25.157Z,1010.92
2018-03-22T04:52:25.172Z,1010.91
2018-03-22T04:53:25.488Z,1010.91
2018-03-22T04:54:25.202Z,1010.89
2018-03-22T04:55:25.223Z,1010.89
2018-03-22T04:56:25.233Z,1010.85
2018-03-22T04:57:25.250Z,1010.82
2018-03-22T04:58:25.264Z,1010.83
2018-03-22T04:59:25.279Z,1010.79
2018-03-22T05:00:25.295Z,1010.77
2018-03-22T05:01:25.309Z,1010.74
2018-03-22T05:02:25.324Z,1010.74
2018-03-22T05:03:25.339Z,1010.72
2018-03-22T05:04:25.355Z,1010.73
2018-03-22T05:05:25.371Z,1010.68
2018-03-22T05:06:25.385Z,1010.72
2018-03-22T05:07:25.401Z,1010.67
2018-03-22T05:08:25.416Z,1010.68
2018-03-22T05:09:25.481Z,1010.67
2018-03-22T05:10:25.446Z,1010.59
2018-03-22T05:11:25.461Z,1010.63
2018-03-22T05:12:25.476Z,1010.61
2018-03-22T05:13:25.492Z,1010.61
2018-03-22T05:14:25.507Z,1010.65
2018-03-22T05:15:25.522Z,1010.62
2018-03-22T05:16:25.539Z,1010.62
2018-03-22T05:17:25.558Z,1010.54
2018-03-22T05:18:25.567Z,1010.56
2018-03-22T05:19:25.583Z,1010.55
2018-03-22T05:20:25.599Z,1010.52
2018-03-22T05:21:25.614Z,1010.51
2018-03-22T05:22:25.629Z,1010.46
2018-03-22T05:23:25.644Z,1010.53
2018-03-22T05:24:25.660Z,1010.49
2018-03-22T05:25:25.675Z,1010.48
2018-03-22T05:26:25.690Z,1010.44
2018-03-22T05:27:25.707Z,1010.43
2018-03-22T05:28:25.720Z,1010.43
2018-03-22T05:29:25.736Z,1010.43
2018-03-22T05:30:25.750Z,1010.41
2018-03-22T05:31:25.770Z,1010.35
2018-03-22T05:32:25.781Z,1010.37
2018-03-22T05:33:25.796Z,1010.32
2018-03-22T05:34:25.811Z,1010.30
2018-03-22T05:35:25.826Z,1010.29
2018-03-22T05:36:25.841Z,1010.25
2018-03-22T05:37:25.856Z,1010.18
2018-03-22T05:38:25.872Z,1010.16
2018-03-22T05:39:25.888Z,1010.14
2018-03-22T05:40:25.902Z,1010.14
2018-03-22T05:41:25.916Z,1010.14
2018-03-22T05:42:25.932Z,1010.08
2018-03-22T05:43:25.948Z,1010.07
2018-03-22T05:44:25.962Z,1010.10
2018-03-22T05:45:25.979Z,1010.08
2018-03-22T05:46:25.992Z,1010.10
2018-03-22T05:47:26.011Z,1010.13
2018-03-22T05:48:26.023Z,1010.14
2018-03-22T05:49:26.038Z,1010.13
2018-03-22T05:50:26.053Z,1010.10
2018-03-22T05:51:26.068Z,1010.10
2018-03-22T05:52:26.083Z,1010.09
2018-03-22T05:53:26.098Z,1010.02
2018-03-22T05:54:26.117Z,1010.03
2018-03-22T05:55:26.128Z,1010.03
2018-03-22T05:56:26.145Z,1010.01
2018-03-22T05:57:26.159Z,1010.03
2018-03-22T05:58:26.173Z,1010.07
2018-03-22T05:59:26.189Z,1010.07
2018-03-22T06:00:26.205Z,1010.07
2018-03-22T06:01:26.220Z,1010.05
2018-03-22T06:02:26.234Z,1010.06
2018-03-22T06:03:26.249Z,1010.03
2018-03-22T06:04:26.265Z,1010.01
2018-03-22T06:05:26.281Z,1009.92
2018-03-22T06:06:26.295Z,1009.91
2018-03-22T06:07:26.310Z,1009.87
2018-03-22T06:08:26.325Z,1009.84
2018-03-22T06:09:26.344Z,1009.80
2018-03-22T06:10:26.354Z,1009.82
2018-03-22T06:11:26.370Z,1009.80
2018-03-22T06:12:26.387Z,1009.77
2018-03-22T06:13:26.401Z,1009.73
2018-03-22T06:14:26.415Z,1009.68
2018-03-22T06:15:26.430Z,1009.66
2018-03-22T06:16:26.445Z,1009.72
2018-03-22T06:17:26.465Z,1009.76
2018-03-22T06:18:26.476Z,1009.73
2018-03-22T06:19:26.491Z,1009.79
2018-03-22T06:20:26.510Z,1009.73
2018-03-22T06:21:26.523Z,1009.73
2018-03-22T06:22:26.537Z,1009.76
2018-03-22T06:23:26.558Z,1009.70
2018-03-22T06:24:26.567Z,1009.66
2018-03-22T06:25:26.583Z,1009.66
2018-03-22T06:26:26.597Z,1009.61
2018-03-22T06:27:26.613Z,1009.57
2018-03-22T06:28:26.628Z,1009.63
2018-03-22T06:29:26.644Z,1009.64
2018-03-22T06:30:26.664Z,1009.64
2018-03-22T06:31:26.673Z,1009.61
2018-03-22T06:32:26.690Z,1009.61
2018-03-22T06:33:26.704Z,1009.58
2018-03-22T06:34:26.718Z,1009.56
2018-03-22T06:35:26.734Z,1009.56
2018-03-22T06:36:26.758Z,1009.67
2018-03-22T06:37:26.765Z,1009.54
2018-03-22T06:38:26.780Z,1009.57
2018-03-22T06:39:26.795Z,1009.58
2018-03-22T06:40:26.811Z,1009.50
2018-03-22T06:41:26.828Z,1009.43
2018-03-22T06:42:26.841Z,1009.51
2018-03-22T06:43:26.856Z,1009.48
2018-03-22T06:44:26.871Z,1009.55
2018-03-22T06:45:26.886Z,1009.50
2018-03-22T06:46:26.900Z,1009.50
2018-03-22T06:47:26.917Z,1009.48
2018-03-22T06:48:26.932Z,1009.42
2018-03-22T06:49:26.947Z,1009.42
2018-03-22T06:50:26.963Z,1009.46
2018-03-22T06:51:26.977Z,1009.44
2018-03-22T06:52:26.993Z,1009.42
2018-03-22T06:53:27.009Z,1009.38
2018-03-22T06:54:27.024Z,1009.41
2018-03-22T06:55:27.039Z,1009.40
2018-03-22T06:56:27.054Z,1009.40
2018-03-22T06:57:27.069Z,1009.42
2018-03-22T06:58:27.084Z,1009.41
2018-03-22T06:59:27.099Z,1009.38
2018-03-22T07:00:27.119Z,1009.38
2018-03-22T07:01:27.131Z,1009.39
2018-03-22T07:02:27.145Z,1009.42
2018-03-22T07:03:27.160Z,1009.47
2018-03-22T07:04:27.176Z,1009.45
2018-03-22T07:05:27.193Z,1009.48
2018-03-22T07:06:27.206Z,1009.41
2018-03-22T07:07:27.221Z,1009.39
2018-03-22T07:08:27.237Z,1009.35
2018-03-22T07:09:27.253Z,1009.35
2018-03-22T07:10:27.266Z,1009.29
2018-03-22T07:11:27.282Z,1009.35
2018-03-22T07:12:27.299Z,1009.30
2018-03-22T07:13:27.315Z,1009.26
2018-03-22T07:14:27.328Z,1009.26
2018-03-22T07:15:27.343Z,1009.17
2018-03-22T07:16:27.363Z,1009.12
2018-03-22T07:17:27.375Z,1009.11
2018-03-22T07:18:27.390Z,1009.07
2018-03-22T07:19:27.405Z,1009.02
2018-03-22T07:20:27.420Z,1009.07
2018-03-22T07:21:27.436Z,1009.09
2018-03-22T07:22:27.451Z,1009.10
2018-03-22T07:23:27.466Z,1009.14
2018-03-22T07:24:27.482Z,1009.09
2018-03-22T07:25:27.550Z,1009.04
2018-03-22T07:26:27.512Z,1009.03
2018-03-22T07:27:27.527Z,1009.03
2018-03-22T07:28:27.543Z,1009.17
2018-03-22T07:29:27.558Z,1009.10
2018-03-22T07:30:27.574Z,1009.13
2018-03-22T07:31:27.588Z,1009.09
2018-03-22T07:32:27.607Z,1009.05
2018-03-22T07:33:27.620Z,1009.06
2018-03-22T07:34:27.634Z,1009.09
2018-03-22T07:35:27.649Z,1009.10
2018-03-22T07:36:27.667Z,1009.04
2018-03-22T07:37:27.680Z,1009.03
2018-03-22T07:38:27.694Z,1009.04
2018-03-22T07:39:27.713Z,1009.05
2018-03-22T07:40:27.726Z,1009.03
2018-03-22T07:41:27.744Z,1009.03
2018-03-22T07:42:27.756Z,1009.04
2018-03-22T07:43:27.771Z,1009.04
2018-03-22T07:44:27.790Z,1009.09
2018-03-22T07:45:27.804Z,1009.03
2018-03-22T07:46:27.817Z,1008.95
2018-03-22T07:47:27.834Z,1008.95
2018-03-22T07:48:27.848Z,1008.98
2018-03-22T07:49:27.864Z,1008.86
2018-03-22T07:50:27.878Z,1008.89
2018-03-22T07:51:27.893Z,1008.83
2018-03-22T07:52:27.909Z,1008.88
2018-03-22T07:53:27.925Z,1008.91
2018-03-22T07:54:27.939Z,1008.89
2018-03-22T07:55:27.954Z,1008.93
2018-03-22T07:56:27.971Z,1008.88
2018-03-22T07:57:27.988Z,1008.88
2018-03-22T07:58:28.000Z,1008.85
2018-03-22T07:59:28.016Z,1008.83
2018-03-22T08:00:28.031Z,1008.91
2018-03-22T08:01:28.046Z,1008.84
2018-03-22T08:02:28.061Z,1008.76
2018-03-22T08:03:28.077Z,1008.74
2018-03-22T08:04:28.096Z,1008.77
2018-03-22T08:05:28.107Z,1008.74
2018-03-22T08:06:28.123Z,1008.75
2018-03-22T08:07:28.138Z,1008.77
2018-03-22T08:08:28.254Z,1008.72
2018-03-22T08:09:28.169Z,1008.69
2018-03-22T08:10:28.189Z,1008.68
2018-03-22T08:11:28.201Z,1008.68
2018-03-22T08:12:28.255Z,1008.67
2018-03-22T08:13:28.231Z,1008.68
2018-03-22T08:14:28.245Z,1008.66
2018-03-22T08:15:28.261Z,1008.68
2018-03-22T08:16:28.277Z,1008.67
2018-03-22T08:17:28.292Z,1008.70
2018-03-22T08:18:28.307Z,1008.70
2018-03-22T08:19:28.322Z,1008.66
2018-03-22T08:20:28.338Z,1008.67
2018-03-22T08:21:28.361Z,1008.70
2018-03-22T08:22:28.368Z,1008.68
2018-03-22T08:23:28.383Z,1008.69
2018-03-22T08:24:28.404Z,1008.70
2018-03-22T08:25:28.416Z,1008.70
2018-03-22T08:26:28.431Z,1008.69
2018-03-22T08:27:28.447Z,1008.62
2018-03-22T08:28:28.463Z,1008.60
2018-03-22T08:29:28.478Z,1008.62
2018-03-22T08:30:28.492Z,1008.59
2018-03-22T08:31:28.508Z,1008.60
2018-03-22T08:32:28.524Z,1008.60
2018-03-22T08:33:28.542Z,1008.55
2018-03-22T08:34:28.554Z,1008.47
2018-03-22T08:35:28.569Z,1008.48
2018-03-22T08:36:28.586Z,1008.51
2018-03-22T08:37:28.602Z,1008.51
2018-03-22T08:38:28.623Z,1008.40
2018-03-22T08:39:28.634Z,1008.48
2018-03-22T08:40:28.649Z,1008.43
2018-03-22T08:41:28.664Z,1008.47
2018-03-22T08:42:28.679Z,1008.41
2018-03-22T08:43:28.695Z,1008.43
2018-03-22T08:44:28.712Z,1008.47
2018-03-22T08:45:28.729Z,1008.47
2018-03-22T08:46:28.741Z,1008.45
2018-03-22T08:47:28.758Z,1008.49
2018-03-22T08:48:28.773Z,1008.47
2018-03-22T08:49:28.789Z,1008.42
2018-03-22T08:50:28.804Z,1008.47
2018-03-22T08:51:28.820Z,1008.42
2018-03-22T08:52:28.835Z,1008.43
2018-03-22T08:53:28.852Z,1008.37
2018-03-22T08:54:28.868Z,1008.37
2018-03-22T08:55:28.890Z,1008.38
2018-03-22T08:56:28.897Z,1008.33
2018-03-22T08:57:28.914Z,1008.37
2018-03-22T08:58:28.929Z,1008.38
2018-03-22T08:59:28.947Z,1008.39
2018-03-22T09:00:28.961Z,1008.38
2018-03-22T09:01:28.988Z,1008.37
2018-03-22T09:02:28.992Z,1008.36
2018-03-22T09:03:29.008Z,1008.43
2018-03-22T09:04:29.024Z,1008.37
2018-03-22T09:05:29.039Z,1008.41
2018-03-22T09:06:29.054Z,1008.41
2018-03-22T09:07:29.070Z,1008.37
2018-03-22T09:08:29.086Z,1008.37
2018-03-22T09:09:29.103Z,1008.40
2018-03-22T09:10:29.422Z,1008.41
2018-03-22T09:11:29.134Z,1008.39
2018-03-22T09:12:29.149Z,1008.41
2018-03-22T09:13:29.165Z,1008.38
2018-03-22T09:14:29.181Z,1008.36
2018-03-22T09:15:29.197Z,1008.37
2018-03-22T09:16:29.213Z,1008.35
2018-03-22T09:17:29.229Z,1008.39
2018-03-22T09:18:29.244Z,1008.35
2018-03-22T09:19:29.260Z,1008.35
2018-03-22T09:20:29.276Z,1008.32
2018-03-22T09:21:29.292Z,1008.35
2018-03-22T09:22:29.360Z,1008.35
2018-03-22T09:23:29.323Z,1008.36
2018-03-22T09:24:29.340Z,1008.33
2018-03-22T09:25:29.356Z,1008.27
2018-03-22T09:26:29.371Z,1008.31
2018-03-22T09:27:29.391Z,1008.28
2018-03-22T09:28:29.403Z,1008.25
2018-03-22T09:29:29.419Z,1008.20
2018-03-22T09:30:29.434Z,1008.24
2018-03-22T09:31:29.453Z,1008.22
2018-03-22T09:32:29.621Z,1008.23
2018-03-22T09:33:29.484Z,1008.21
2018-03-22T09:34:29.498Z,1008.20
2018-03-22T09:35:29.765Z,1008.22
2018-03-22T09:36:29.531Z,1008.18
2018-03-22T09:37:29.547Z,1008.20
2018-03-22T09:38:29.579Z,1008.17
2018-03-22T09:39:29.579Z,1008.12
2018-03-22T09:40:29.598Z,1008.17
2018-03-22T09:41:29.613Z,1008.12
2018-03-22T09:42:29.630Z,1008.16
2018-03-22T09:43:29.644Z,1008.13
2018-03-22T09:44:29.659Z,1008.17
2018-03-22T09:45:29.676Z,1008.12
2018-03-22T09:46:29.694Z,1008.15
2018-03-22T09:47:29.708Z,1008.11
2018-03-22T09:48:29.725Z,1008.12
2018-03-22T09:49:29.741Z,1008.13
2018-03-22T09:50:29.755Z,1008.10
2018-03-22T09:51:29.773Z,1008.11
2018-03-22T09:52:29.789Z,1008.15
2018-03-22T09:53:29.806Z,1008.17
2018-03-22T09:54:29.820Z,1008.25
2018-03-22T09:55:29.837Z,1008.20
2018-03-22T09:56:29.855Z,1008.19
2018-03-22T09:57:29.870Z,1008.18
2018-03-22T09:58:29.886Z,1008.15
2018-03-22T09:59:29.902Z,1008.09
2018-03-22T10:00:29.919Z,1008.10
2018-03-22T10:01:29.934Z,1008.06
2018-03-22T10:02:29.955Z,1008.06
2018-03-22T10:03:29.966Z,1008.12
2018-03-22T10:04:29.982Z,1008.10
2018-03-22T10:05:30.000Z,1008.13
2018-03-22T10:06:30.016Z,1008.08
2018-03-22T10:07:30.032Z,1008.10
2018-03-22T10:08:30.079Z,1008.06
2018-03-22T10:09:30.066Z,1008.06
2018-03-22T10:10:30.081Z,1008.08
2018-03-22T10:11:30.096Z,1008.06
2018-03-22T10:12:30.115Z,1008.06
2018-03-22T10:13:30.129Z,1008.04
2018-03-22T10:14:30.147Z,1008.08
2018-03-22T10:15:30.162Z,1008.10
2018-03-22T10:16:30.180Z,1008.07
2018-03-22T10:17:30.196Z,1008.10
2018-03-22T10:18:30.225Z,1008.11
2018-03-22T10:19:30.227Z,1008.08
2018-03-22T10:20:30.246Z,1008.06
2018-03-22T10:21:30.267Z,1008.08
2018-03-22T10:22:30.277Z,1008.11
2018-03-22T10:23:30.294Z,1008.12
2018-03-22T10:24:30.311Z,1008.08
2018-03-22T10:25:30.327Z,1008.09
2018-03-22T10:26:30.342Z,1008.13
2018-03-22T10:27:30.359Z,1008.11
2018-03-22T10:28:30.376Z,1008.06
2018-03-22T10:29:30.392Z,1008.11
2018-03-22T10:30:30.408Z,1008.06
2018-03-22T10:31:30.425Z,1008.04
2018-03-22T10:32:30.442Z,1008.06
2018-03-22T10:33:30.458Z,1008.06
2018-03-22T10:34:30.475Z,1008.04
2018-03-22T10:35:30.491Z,1008.02
2018-03-22T10:36:30.759Z,1008.03
2018-03-22T10:37:30.525Z,1007.99
2018-03-22T10:38:30.547Z,1007.95
2018-03-22T10:39:30.559Z,1007.96
2018-03-22T10:40:30.589Z,1007.93
2018-03-22T10:41:30.592Z,1007.89
2018-03-22T10:42:30.608Z,1007.93
2018-03-22T10:43:30.624Z,1007.91
2018-03-22T10:44:30.642Z,1007.89
2018-03-22T10:45:30.658Z,1007.90
2018-03-22T10:46:30.675Z,1007.94
2018-03-22T10:47:30.692Z,1007.91
2018-03-22T10:48:30.709Z,1007.91
2018-03-22T10:49:30.727Z,1007.92
2018-03-22T10:50:30.743Z,1007.86
2018-03-22T10:51:30.763Z,1007.82
2018-03-22T10:52:30.776Z,1007.87
2018-03-22T10:53:30.794Z,1007.83
2018-03-22T10:54:30.811Z,1007.80
2018-03-22T10:55:30.827Z,1007.80
2018-03-22T10:56:30.844Z,1007.77
2018-03-22T10:57:30.862Z,1007.73
2018-03-22T10:58:30.878Z,1007.73
2018-03-22T10:59:30.895Z,1007.74
2018-03-22T11:00:30.913Z,1007.74
2018-03-22T11:01:30.931Z,1007.73
2018-03-22T11:02:30.946Z,1007.78
2018-03-22T11:03:30.964Z,1007.80
2018-03-22T11:04:30.980Z,1007.78
2018-03-22T11:05:31.003Z,1007.78
2018-03-22T11:06:31.014Z,1007.70
2018-03-22T11:07:31.032Z,1007.69
2018-03-22T11:08:31.050Z,1007.73
2018-03-22T11:09:31.066Z,1007.71
2018-03-22T11:10:31.082Z,1007.69
2018-03-22T11:11:31.099Z,1007.71
2018-03-22T11:12:31.117Z,1007.65
2018-03-22T11:13:31.137Z,1007.62
2018-03-22T11:14:31.151Z,1007.61
2018-03-22T11:15:31.169Z,1007.61
2018-03-22T11:16:31.185Z,1007.60
2018-03-22T11:17:31.208Z,1007.64
2018-03-22T11:18:31.220Z,1007.61
2018-03-22T11:19:31.243Z,1007.64
2018-03-22T11:20:31.258Z,1007.62
2018-03-22T11:21:31.272Z,1007.61
2018-03-22T11:22:31.290Z,1007.59
2018-03-22T11:23:31.308Z,1007.52
2018-03-22T11:24:31.326Z,1007.54
2018-03-22T11:25:31.344Z,1007.56
2018-03-22T11:26:31.360Z,1007.54
2018-03-22T11:27:31.436Z,1007.61
2018-03-22T11:28:31.406Z,1007.53
2018-03-22T11:29:31.415Z,1007.55
2018-03-22T11:30:31.432Z,1007.52
2018-03-22T11:31:31.452Z,1007.54
2018-03-22T11:32:31.467Z,1007.57
2018-03-22T11:33:31.486Z,1007.54
2018-03-22T11:34:31.503Z,1007.48
2018-03-22T11:35:31.522Z,1007.46
2018-03-22T11:36:31.540Z,1007.48
2018-03-22T11:37:31.557Z,1007.43
2018-03-22T11:38:31.574Z,1007.51
2018-03-22T11:39:31.943Z,1007.48
2018-03-22T11:40:31.611Z,1007.44
2018-03-22T11:41:31.628Z,1007.42
2018-03-22T11:42:31.645Z,1007.40
2018-03-22T11:43:31.665Z,1007.42
2018-03-22T11:44:31.682Z,1007.36
2018-03-22T11:45:31.700Z,1007.44
2018-03-22T11:46:31.717Z,1007.43
2018-03-22T11:47:31.736Z,1007.41
2018-03-22T11:48:31.753Z,1007.41
2018-03-22T11:49:31.771Z,1007.40
2018-03-22T11:50:31.788Z,1007.39
2018-03-22T11:51:31.814Z,1007.42
2018-03-22T11:52:31.824Z,1007.41
2018-03-22T11:53:31.841Z,1007.37
2018-03-22T11:54:31.858Z,1007.36
2018-03-22T11:55:31.875Z,1007.38
2018-03-22T11:56:31.895Z,1007.38
2018-03-22T11:57:31.912Z,1007.39
2018-03-22T11:58:31.931Z,1007.37
2018-03-22T11:59:31.949Z,1007.33
2018-03-22T12:00:31.964Z,1007.35
2018-03-22T12:01:31.984Z,1007.35
2018-03-22T12:02:31.999Z,1007.32
2018-03-22T12:03:32.018Z,1007.36
2018-03-22T12:04:32.034Z,1007.33
2018-03-22T12:05:32.052Z,1007.31